Terminal Aerodrome Forecast
Issued by NWS Twin Cities, MN

Home | Current Version | Previous Version | Graphics & Text | Print | Product List | Glossary On
Versions: 1 2 3 4 5 6 7 8 9 10 11 12 13 14 15 16 17 18 19 20 21 22 23
000
FTUS43 KMPX 171000 AAA
TAFEAU
TAF AMD
KEAU 171037Z 1711/1806 08003KT 6SM BR OVC007
     FM171500 11006KT P6SM SCT009 OVC015
     FM171800 13007KT P6SM SCT020 OVC040
      TEMPO 1718/1720 BKN025
     FM180000 11004KT P6SM VCSH SCT030 OVC060=

USA.gov is the U.S. government's official web portal to all federal, state and local government web resources and services.